Weather at Chongqing Jiangbei International Airport

Public forecast

Using degrees Celsius for public forecast. Weather courtesy of forecast.io.

Current aviation weather report (METAR) for Chongqing Jiangbei International Airport

2024/05/28 04:00 (retrieved 12 minutes ago)

ZUCK 280400Z 07004MPS 040V100 9999 -RA NSC 27/19 Q1005 NOSIG

Closest aviation forecast (TAF) to Chongqing Jiangbei International Airport

Forecast is more than 6 hours old.

Closest forecast is Chengdu Tianfu International Airport, 120.4 nm (223.1 km) WNW.

2024/05/27 18:00 (retrieved 10 hours ago)

TAF ZUTF 271508Z 2718/2818 04003MPS 6000 -SHRA FEW030CB SCT030 TX24/2807Z TN20/2722Z TEMPO 2718/2720 SHRA BECMG 2720/2721 SCT040 BECMG 2811/2812 FEW030CB SCT030 TEMPO 2812/2815 SHRA